Time;durP1;ratioP1;P1;durP2;ratioP2;P2;SDS_P1;SDS_P2;PMS_P1;PMS_P2;Temp;Humidity;BMP_temperature;BMP_pressure;BME280_temperature;BME280_humidity;BME280_pressure;Samples;Min_cycle;Max_cycle;Signal;HPM_P1;HPM_P2
2023/01/17 00:00:16;;;;;;;;;12.00;8.67;;;;;5.97;66.55;98803.69;1992356;28;3491930;-77
2023/01/17 00:01:29;;;;;;;;;5.00;5.00;;;;;5.96;66.58;98799.41;2012234;28;2718015;-77
2023/01/17 00:02:40;;;;;;;;;13.00;13.00;;;;;5.96;66.18;98806.38;1983866;28;3526268;-77
2023/01/17 00:10:12;;;;;;;;;11.67;9.33;;;;;5.88;66.34;98803.28;1985680;28;3486690;-77
2023/01/17 00:11:25;;;;;;;;;11.83;8.50;;;;;5.87;66.37;98799.81;2003510;28;2753725;-78
2023/01/17 00:12:36;;;;;;;;;10.67;10.67;;;;;5.85;66.26;98799.88;1948746;28;3513789;-77
2023/01/17 00:13:46;;;;;;;;;9.00;9.00;;;;;5.84;66.42;98802.56;1982206;28;2728467;-77
2023/01/17 00:14:59;;;;;;;;;10.00;8.67;;;;;5.82;66.42;98794.81;2003106;28;2750365;-77
2023/01/17 00:16:09;;;;;;;;;11.67;8.00;;;;;5.80;66.59;98786.19;1955905;28;2753473;-77
2023/01/17 00:17:25;;;;;;;;;10.33;9.33;;;;;5.78;66.39;98784.59;1993677;28;2765944;-77
2023/01/17 00:18:35;;;;;;;;;9.67;6.00;;;;;5.78;66.60;98792.41;1978713;28;2746473;-77
2023/01/17 00:26:02;;;;;;;;;10.67;10.33;;;;;5.68;66.74;98786.75;1965205;28;3522121;-77
2023/01/17 01:33:43;;;;;;;;;18.00;12.00;;;;;5.24;67.45;98749.53;1960125;28;2815216;-77
2023/01/17 01:34:54;;;;;;;;;10.00;9.33;;;;;5.23;67.57;98746.09;1974381;28;2763758;-77
2023/01/17 01:36:07;;;;;;;;;18.00;14.25;;;;;5.21;67.54;98747.06;2010841;28;1835725;-77
2023/01/17 01:37:18;;;;;;;;;14.00;13.00;;;;;5.20;67.64;98751.44;1960106;28;2810695;-77
2023/01/17 01:38:30;;;;;;;;;14.00;13.00;;;;;5.18;67.42;98748.88;1975719;28;2819005;-77
2023/01/17 01:39:41;;;;;;;;;10.67;10.33;;;;;5.18;67.65;98751.47;1973987;28;1848207;-77
2023/01/17 01:40:55;;;;;;;;;11.00;9.33;;;;;5.19;67.34;98747.13;1977380;28;3492261;-77
2023/01/17 01:42:14;;;;;;;;;19.50;17.00;;;;;5.16;67.44;98750.69;1980038;28;2833604;-77
2023/01/17 01:43:42;;;;;;;;;12.75;11.25;;;;;5.16;67.54;98755.91;1974892;28;1842023;-77
2023/01/17 01:44:54;;;;;;;;;14.75;13.25;;;;;5.14;67.48;98747.31;2004943;28;1860739;-77
2023/01/17 01:46:06;;;;;;;;;17.75;13.00;;;;;5.13;67.34;98748.25;2010091;28;1856616;-77
2023/01/17 01:47:27;;;;;;;;;17.00;16.50;;;;;5.13;68.11;98744.78;1975871;28;2825277;-77
2023/01/17 01:48:45;;;;;;;;;11.25;11.00;;;;;5.10;67.37;98748.38;1967489;28;1845539;-77
2023/01/17 01:49:59;;;;;;;;;14.50;14.00;;;;;5.10;67.35;98750.13;1975476;28;2814846;-77
2023/01/17 01:51:15;;;;;;;;;19.00;14.00;;;;;5.07;67.52;98749.34;1952099;28;2795040;-77
2023/01/17 01:52:32;;;;;;;;;6.00;3.67;;;;;5.06;67.03;98749.41;1982872;28;2746087;-77
2023/01/17 01:53:47;;;;;;;;;11.33;11.33;;;;;5.04;67.59;98741.66;1976923;28;3533579;-77
2023/01/17 01:55:06;;;;;;;;;15.67;14.17;;;;;5.04;67.65;98752.06;2013918;28;1827377;-77
2023/01/17 01:56:18;;;;;;;;;13.00;13.00;;;;;5.03;67.51;98742.59;1966445;28;2809662;-77
2023/01/17 01:57:39;;;;;;;;;19.00;16.50;;;;;5.04;67.54;98738.19;1960655;28;2827849;-77
2023/01/17 01:58:51;;;;;;;;;17.00;15.00;;;;;5.03;67.65;98731.31;1959801;28;2806510;-77
2023/01/17 02:00:07;;;;;;;;;19.50;15.50;;;;;5.02;67.70;98733.06;1983308;28;2805463;-77
2023/01/17 02:01:18;;;;;;;;;18.33;15.67;;;;;5.02;67.55;98737.41;1960074;28;2823290;-77
2023/01/17 02:02:30;;;;;;;;;19.00;16.00;;;;;5.02;67.54;98733.06;1983844;28;2819076;-77
2023/01/17 02:03:42;;;;;;;;;18.50;17.50;;;;;5.00;67.87;98721.88;1960460;28;2828749;-77
2023/01/17 02:04:52;;;;;;;;;20.00;17.00;;;;;4.99;67.75;98722.78;1956594;28;2820070;-77
2023/01/17 02:06:31;;;;;;;;;25.00;17.50;;;;;5.00;67.75;98718.41;1962990;28;2827326;-77
2023/01/17 02:07:52;;;;;;;;;16.67;16.00;;;;;5.00;67.56;98723.63;1984285;28;1821127;-77
2023/01/17 02:09:07;;;;;;;;;23.00;20.00;;;;;5.00;68.11;98715.81;1953900;28;2826355;-77
2023/01/17 02:10:18;;;;;;;;;21.00;21.00;;;;;5.00;67.94;98708.84;1984739;28;2827373;-77
2023/01/17 02:11:31;;;;;;;;;20.67;17.33;;;;;5.02;67.79;98713.97;1998786;28;3569090;-77
2023/01/17 02:12:44;;;;;;;;;26.33;20.67;;;;;5.02;68.02;98712.22;1982291;28;3587709;-77
2023/01/17 02:13:55;;;;;;;;;18.50;18.00;;;;;5.04;67.71;98717.38;1982607;28;2824229;-77
2023/01/17 02:15:07;;;;;;;;;19.00;19.00;;;;;5.04;68.00;98714.75;1977577;28;2827881;-77
2023/01/17 02:16:44;;;;;;;;;20.86;19.00;;;;;5.03;67.95;98713.09;2010412;28;1844061;-77
2023/01/17 02:18:34;;;;;;;;;19.00;18.33;;;;;5.03;67.61;98710.47;1982452;28;2835707;-77
2023/01/17 02:20:00;;;;;;;;;19.67;17.67;;;;;5.03;67.88;98715.69;1967902;28;3566907;-77
2023/01/17 02:21:23;;;;;;;;;18.67;17.00;;;;;5.01;68.04;98712.31;1979929;28;2822154;-77
2023/01/17 02:23:02;;;;;;;;;24.33;22.67;;;;;5.01;67.50;98714.91;2010325;28;1844087;-77
2023/01/17 02:24:29;;;;;;;;;15.67;15.33;;;;;4.99;67.86;98712.34;1966792;28;2819018;-77
2023/01/17 02:26:12;;;;;;;;;23.67;20.00;;;;;4.99;67.77;98711.53;1987575;28;3577372;-77
2023/01/17 02:27:31;;;;;;;;;20.00;19.00;;;;;4.98;67.85;98704.63;1957115;28;3575236;-77
2023/01/17 02:29:04;;;;;;;;;24.67;20.33;;;;;4.95;67.76;98698.63;1962797;28;3586717;-77
2023/01/17 02:30:27;;;;;;;;;18.67;18.67;;;;;4.95;67.63;98693.44;2012116;28;1842073;-77
2023/01/17 02:31:43;;;;;;;;;18.50;17.00;;;;;4.93;67.85;98687.44;1961362;28;2821116;-77
2023/01/17 02:33:23;;;;;;;;;22.67;19.67;;;;;4.93;67.83;98695.25;1959909;28;3579394;-77
2023/01/17 02:34:52;;;;;;;;;22.33;19.33;;;;;4.91;67.96;98683.22;1983555;28;3573137;-77
2023/01/17 02:36:15;;;;;;;;;24.60;20.40;;;;;4.90;67.73;98681.50;1996902;28;2839830;-77
2023/01/17 02:37:46;;;;;;;;;26.33;23.00;;;;;4.89;68.16;98678.06;1953248;28;3600228;-77
2023/01/17 02:39:18;;;;;;;;;23.00;19.60;;;;;4.88;67.81;98673.78;1994362;28;2831477;-77
2023/01/17 02:40:44;;;;;;;;;22.00;19.00;;;;;4.87;67.78;98672.06;1953647;28;3570072;-77
2023/01/17 02:42:08;;;;;;;;;25.00;22.00;;;;;4.84;67.85;98667.84;1979075;28;3591906;-77
2023/01/17 02:43:22;;;;;;;;;26.00;19.67;;;;;4.84;67.94;98667.84;1985282;28;3576298;-77
2023/01/17 02:44:40;;;;;;;;;18.67;17.67;;;;;4.83;67.94;98665.31;2010932;28;1842076;-77
2023/01/17 02:45:53;;;;;;;;;21.20;17.40;;;;;4.83;67.91;98658.34;1981228;28;2839801;-77
2023/01/17 02:47:27;;;;;;;;;25.67;20.00;;;;;4.82;68.06;98655.81;1969887;28;3569038;-77
2023/01/17 02:48:42;;;;;;;;;20.50;18.17;;;;;4.81;67.66;98651.53;2006317;28;1839877;-77
2023/01/17 02:50:00;;;;;;;;;21.00;20.33;;;;;4.82;67.98;98655.81;1954983;28;3584607;-77
2023/01/17 02:51:38;;;;;;;;;22.20;20.00;;;;;4.79;68.12;98641.16;2006970;28;2845006;-77
2023/01/17 02:53:03;;;;;;;;;27.00;19.00;;;;;4.80;68.11;98644.63;1964744;28;3593998;-77
2023/01/17 02:54:23;;;;;;;;;25.00;20.67;;;;;4.80;68.04;98639.41;1983784;28;3561679;-77
2023/01/17 02:55:47;;;;;;;;;19.00;19.00;;;;;4.80;68.51;98642.00;1977303;28;2823179;-77
2023/01/17 02:57:10;;;;;;;;;22.33;18.67;;;;;4.78;67.78;98631.69;1954810;28;3569002;-77
2023/01/17 02:58:55;;;;;;;;;28.33;19.67;;;;;4.78;67.79;98630.81;1977216;28;3592253;-77
2023/01/17 03:00:21;;;;;;;;;24.00;18.50;;;;;4.77;68.10;98629.97;1984330;28;2839922;-77
2023/01/17 03:01:47;;;;;;;;;17.67;17.67;;;;;4.77;68.02;98629.13;1962359;28;2831577;-77
2023/01/17 03:03:23;;;;;;;;;21.50;19.00;;;;;4.75;68.29;98624.00;1984418;28;2835679;-77
2023/01/17 03:04:43;;;;;;;;;19.00;16.00;;;;;4.76;68.19;98623.09;1946136;28;2816982;-77
2023/01/17 03:06:10;;;;;;;;;16.33;16.17;;;;;4.76;68.01;98615.28;1997789;28;1837905;-77
2023/01/17 03:07:25;;;;;;;;;17.50;12.25;;;;;4.75;68.58;98617.94;1975404;28;1848191;-77
2023/01/17 03:08:43;;;;;;;;;16.50;15.00;;;;;4.73;68.07;98613.66;1984505;28;2802366;-77
2023/01/17 03:09:59;;;;;;;;;14.50;13.00;;;;;4.72;68.22;98606.75;1961362;28;2804434;-77
2023/01/17 03:11:13;;;;;;;;;18.33;16.83;;;;;4.72;68.23;98606.75;2012552;28;1831582;-77
2023/01/17 03:12:37;;;;;;;;;20.00;17.00;;;;;4.72;68.18;98605.91;1961233;28;2827342;-77
2023/01/17 03:13:47;;;;;;;;;13.00;12.00;;;;;4.70;67.90;98603.38;1956587;28;2805492;-77
2023/01/17 03:14:58;;;;;;;;;15.50;14.00;;;;;4.71;68.01;98601.63;2000792;28;2803435;-77
2023/01/17 03:16:15;;;;;;;;;19.33;17.33;;;;;4.71;68.04;98596.41;1978507;28;2823148;-76
2023/01/17 03:17:31;;;;;;;;;20.33;14.67;;;;;4.69;68.11;98596.47;1984816;28;2821199;-77
2023/01/17 03:18:41;;;;;;;;;20.00;16.00;;;;;4.70;68.01;98597.31;1984287;28;2821115;-77
2023/01/17 03:19:52;;;;;;;;;18.00;16.50;;;;;4.68;67.90;98589.59;1972574;28;2817401;-77
2023/01/17 03:21:04;;;;;;;;;22.00;16.00;;;;;4.68;67.96;98592.19;1978126;28;2811714;-77
2023/01/17 03:22:15;;;;;;;;;16.00;13.00;;;;;4.67;68.46;98585.28;1980531;28;2807523;-77
2023/01/17 03:23:26;;;;;;;;;17.50;16.50;;;;;4.66;67.78;98583.59;2000858;28;2827358;-77
2023/01/17 03:24:37;;;;;;;;;16.67;16.33;;;;;4.65;67.81;98576.69;1981291;28;2823168;-77
2023/01/17 03:25:50;;;;;;;;;24.20;16.60;;;;;4.65;68.36;98581.06;2009045;28;2837188;-77
2023/01/17 03:27:01;;;;;;;;;15.33;14.33;;;;;4.66;68.09;98575.78;1997745;28;1845052;-77
2023/01/17 03:28:11;;;;;;;;;16.00;15.00;;;;;4.64;68.41;98577.63;1957628;28;2808612;-77
2023/01/17 03:29:22;;;;;;;;;12.50;12.50;;;;;4.64;67.98;98572.41;1984435;28;2808553;-77
2023/01/17 03:30:34;;;;;;;;;16.00;14.20;;;;;4.64;68.45;98577.63;2017718;28;1829552;-77
2023/01/17 03:31:46;;;;;;;;;14.50;13.75;;;;;4.63;68.26;98575.06;2006014;28;1853438;-77
2023/01/17 03:32:57;;;;;;;;;18.67;17.00;;;;;4.62;68.24;98574.22;1980728;28;2827473;-77
2023/01/17 03:34:08;;;;;;;;;19.00;15.50;;;;;4.61;68.40;98576.00;1969365;28;2812767;-77
2023/01/17 03:35:19;;;;;;;;;16.00;13.00;;;;;4.62;68.31;98576.81;1973510;28;2798184;-77
2023/01/17 03:36:30;;;;;;;;;15.50;12.00;;;;;4.62;68.46;98571.63;2000998;28;2799230;-77
2023/01/17 03:37:42;;;;;;;;;17.50;15.50;;;;;4.63;68.30;98575.06;1998446;28;2810728;-77
2023/01/17 03:38:52;;;;;;;;;12.00;12.00;;;;;4.62;68.55;98571.63;1977295;28;2810675;-77
2023/01/17 03:40:04;;;;;;;;;13.75;13.50;;;;;4.64;68.30;98569.81;2016770;28;1829478;-77
2023/01/17 03:41:14;;;;;;;;;19.00;16.50;;;;;4.61;68.35;98568.19;1956871;28;2817998;-77
2023/01/17 03:42:25;;;;;;;;;17.50;13.00;;;;;4.61;68.18;98567.34;2000296;28;2818011;-77
2023/01/17 03:43:37;;;;;;;;;15.50;13.50;;;;;4.62;68.40;98569.00;1969689;28;2805448;-77
2023/01/17 03:44:48;;;;;;;;;12.00;11.00;;;;;4.62;68.46;98566.41;1975296;28;2802358;-77
2023/01/17 03:46:16;;;;;;;;;16.50;12.50;;;;;4.62;68.39;98563.81;1982396;28;2813808;-77
2023/01/17 03:47:26;;;;;;;;;14.33;12.00;;;;;4.62;68.63;98561.22;1961911;28;3515899;-77
2023/01/17 03:48:39;;;;;;;;;14.75;12.25;;;;;4.62;67.96;98558.59;2017609;28;1831611;-77
2023/01/17 03:49:50;;;;;;;;;10.67;9.00;;;;;4.62;68.11;98563.81;1962430;28;3492987;-77
2023/01/17 03:51:01;;;;;;;;;12.33;12.00;;;;;4.61;68.12;98556.94;1991757;28;3524220;-77
2023/01/17 03:52:12;;;;;;;;;12.00;11.33;;;;;4.63;68.13;98559.47;1998570;28;3515871;-77
2023/01/17 03:53:24;;;;;;;;;18.20;13.80;;;;;4.64;68.54;98563.75;2006659;28;1829510;-77
2023/01/17 03:54:34;;;;;;;;;12.67;11.67;;;;;4.63;68.42;98555.09;1953432;28;3532589;-77
2023/01/17 03:55:46;;;;;;;;;13.00;10.67;;;;;4.63;68.36;98559.47;2000388;28;3508568;-77
2023/01/17 03:56:57;;;;;;;;;14.25;11.50;;;;;4.63;68.15;98549.03;2003573;28;1839901;-77
2023/01/17 03:58:08;;;;;;;;;19.00;15.00;;;;;4.64;68.28;98551.59;1984366;28;2817983;-77
2023/01/17 03:59:19;;;;;;;;;16.50;12.50;;;;;4.63;68.48;98542.09;1977421;28;2798212;-77
2023/01/17 04:00:31;;;;;;;;;14.00;14.00;;;;;4.65;68.37;98547.22;2005259;28;1841980;-77
2023/01/17 04:01:42;;;;;;;;;14.50;13.50;;;;;4.64;68.11;98538.59;1999561;28;1848235;-77
2023/01/17 04:02:53;;;;;;;;;15.00;14.50;;;;;4.64;68.30;98543.78;1983741;28;2807569;-77
2023/01/17 04:04:04;;;;;;;;;12.00;11.00;;;;;4.63;68.20;98539.50;1994342;28;2791946;-77
2023/01/17 04:05:15;;;;;;;;;16.00;11.00;;;;;4.63;68.06;98536.88;1999651;28;2797110;-77
2023/01/17 04:06:27;;;;;;;;;11.50;11.50;;;;;4.64;68.47;98537.75;1959558;28;2800262;-77
2023/01/17 04:07:37;;;;;;;;;13.33;12.00;;;;;4.63;68.34;98534.28;1960930;28;3508658;-77
2023/01/17 04:08:48;;;;;;;;;10.67;10.33;;;;;4.64;68.30;98550.75;2023119;28;1846076;-77
2023/01/17 04:09:59;;;;;;;;;11.00;9.00;;;;;4.64;68.24;98542.94;1968550;28;2775292;-77
2023/01/17 04:11:11;;;;;;;;;12.00;10.60;;;;;4.63;68.40;98541.25;2014577;28;1827419;-77
2023/01/17 04:12:21;;;;;;;;;13.00;11.00;;;;;4.61;68.14;98549.97;1960804;28;3513811;-77
2023/01/17 04:13:32;;;;;;;;;12.00;9.33;;;;;4.62;68.41;98553.41;2000112;28;3495553;-77
2023/01/17 04:14:43;;;;;;;;;16.00;12.50;;;;;4.61;68.36;98546.53;1999509;28;2799218;-77
2023/01/17 04:15:54;;;;;;;;;16.00;13.00;;;;;4.59;68.29;98543.97;2001933;28;2813792;-77
2023/01/17 04:17:09;;;;;;;;;16.50;12.00;;;;;4.60;68.46;98545.66;2008933;28;1856592;-77
2023/01/17 04:18:21;;;;;;;;;11.33;11.33;;;;;4.59;68.13;98546.56;1986084;28;3518466;-77
2023/01/17 04:19:35;;;;;;;;;12.00;11.25;;;;;4.60;68.27;98550.88;1991484;28;1835699;-77
2023/01/17 04:20:46;;;;;;;;;11.67;11.00;;;;;4.59;68.20;98548.34;1976771;28;3510629;-77
2023/01/17 04:21:58;;;;;;;;;13.75;13.25;;;;;4.59;68.65;98543.16;2004529;28;1844613;-77
2023/01/17 04:23:08;;;;;;;;;14.00;11.67;;;;;4.59;68.69;98549.16;1976723;28;3514830;-77
2023/01/17 04:24:19;;;;;;;;;12.67;12.00;;;;;4.59;68.35;98548.34;1990411;28;3534636;-77
2023/01/17 04:25:30;;;;;;;;;16.00;10.00;;;;;4.61;68.40;98556.94;2003607;28;3521106;-77
2023/01/17 04:26:42;;;;;;;;;14.50;12.75;;;;;4.58;68.56;98547.50;2011037;28;1856550;-77
2023/01/17 04:27:53;;;;;;;;;15.00;13.00;;;;;4.60;68.34;98547.41;1984537;28;3540855;-77
2023/01/17 04:29:04;;;;;;;;;12.50;12.50;;;;;4.59;68.51;98535.34;1998369;28;1862823;-77
2023/01/17 04:30:16;;;;;;;;;15.50;12.75;;;;;4.59;68.54;98543.16;1991811;28;1845054;-77
2023/01/17 04:31:26;;;;;;;;;12.50;10.50;;;;;4.59;68.44;98538.75;1976460;28;2796097;-77
2023/01/17 04:32:37;;;;;;;;;16.50;13.00;;;;;4.59;68.72;98543.97;2008076;28;2825270;-77
2023/01/17 04:33:48;;;;;;;;;13.33;8.33;;;;;4.59;68.71;98537.94;1983116;28;2752410;-77
2023/01/17 04:34:59;;;;;;;;;13.00;11.67;;;;;4.60;68.76;98537.00;2014707;28;1854500;-77
2023/01/17 04:36:10;;;;;;;;;16.67;14.67;;;;;4.59;68.39;98533.56;1955125;28;3525241;-77
2023/01/17 04:37:21;;;;;;;;;11.33;9.33;;;;;4.60;68.81;98537.88;1992472;28;3491946;-77
2023/01/17 04:38:34;;;;;;;;;13.40;12.60;;;;;4.60;69.10;98540.47;2011601;28;1831551;-77
2023/01/17 04:39:45;;;;;;;;;12.25;11.75;;;;;4.61;68.50;98536.97;1974989;28;1842533;-77
2023/01/17 04:40:56;;;;;;;;;14.00;12.75;;;;;4.61;68.78;98525.72;1990700;28;1843104;-76
2023/01/17 04:42:07;;;;;;;;;16.00;12.00;;;;;4.61;68.48;98536.13;1976324;28;3530451;-77
2023/01/17 04:43:18;;;;;;;;;17.00;13.50;;;;;4.61;68.47;98530.91;1998113;28;2820082;-77
2023/01/17 04:44:30;;;;;;;;;17.50;14.00;;;;;4.61;68.92;98528.31;1987600;28;1850298;-76
2023/01/17 04:45:40;;;;;;;;;13.67;11.67;;;;;4.64;68.42;98535.13;1987072;28;3510651;-76
2023/01/17 04:46:51;;;;;;;;;8.67;6.00;;;;;4.63;68.78;98528.22;1989886;28;2746103;-76
2023/01/17 04:48:03;;;;;;;;;17.00;12.00;;;;;4.62;68.46;98516.97;1960355;28;2814851;-76
2023/01/17 04:49:14;;;;;;;;;16.33;12.33;;;;;4.63;68.43;98517.81;1953263;28;3542994;-76
2023/01/17 04:50:25;;;;;;;;;17.00;12.50;;;;;4.63;68.67;98518.66;1992066;28;2817991;-76
2023/01/17 04:51:36;;;;;;;;;12.00;12.00;;;;;4.63;68.33;98518.66;1991943;28;2808982;-76
2023/01/17 04:52:48;;;;;;;;;14.00;14.00;;;;;4.63;68.80;98513.47;2012521;28;1844570;-76
2023/01/17 04:53:59;;;;;;;;;15.00;14.00;;;;;4.64;68.99;98514.31;2000974;28;2809148;-76
2023/01/17 04:55:10;;;;;;;;;16.00;11.00;;;;;4.64;68.48;98516.91;1977267;28;3514806;-76
2023/01/17 04:56:21;;;;;;;;;13.00;13.00;;;;;4.64;68.88;98519.53;1996411;28;2812774;-76
2023/01/17 04:57:32;;;;;;;;;15.50;13.00;;;;;4.62;68.61;98506.56;1967103;28;2809633;-76
2023/01/17 04:58:43;;;;;;;;;13.00;12.00;;;;;4.64;68.57;98509.97;1976514;28;2803388;-76
2023/01/17 04:59:54;;;;;;;;;12.50;12.50;;;;;4.62;68.83;98506.56;1995972;28;2797139;-76
2023/01/17 05:01:07;;;;;;;;;11.00;9.00;;;;;4.63;68.81;98505.66;1966120;28;3485606;-77
2023/01/17 05:02:18;;;;;;;;;15.50;12.00;;;;;4.63;68.25;98507.41;1990388;28;1848295;-76
2023/01/17 05:03:30;;;;;;;;;16.50;12.50;;;;;4.64;68.41;98503.91;1995095;28;1848261;-76
2023/01/17 05:04:40;;;;;;;;;12.00;12.00;;;;;4.63;68.54;98507.41;1982189;28;2808600;-76
2023/01/17 05:05:51;;;;;;;;;13.33;12.33;;;;;4.62;68.66;98501.34;1977665;28;3513795;-76
2023/01/17 05:07:03;;;;;;;;;17.00;12.00;;;;;4.63;68.79;98494.41;1993455;28;2815943;-76
2023/01/17 05:08:14;;;;;;;;;12.00;12.00;;;;;4.62;68.30;98501.34;1950329;28;3546031;-76
2023/01/17 05:09:25;;;;;;;;;14.50;12.50;;;;;4.63;68.42;98497.84;1973329;28;2811701;-76
2023/01/17 05:10:36;;;;;;;;;16.00;14.50;;;;;4.61;68.68;98484.94;1969436;28;2810644;-76
2023/01/17 05:11:47;;;;;;;;;10.00;9.33;;;;;4.62;68.61;98490.94;1994434;28;3481549;-76
2023/01/17 05:12:58;;;;;;;;;15.33;13.00;;;;;4.62;68.71;98490.94;2000075;28;3540863;-76
2023/01/17 05:14:09;;;;;;;;;14.00;12.00;;;;;4.61;68.54;98484.94;1984030;28;3541927;-76
2023/01/17 05:15:20;;;;;;;;;17.00;14.50;;;;;4.61;68.19;98486.69;1983746;28;2811772;-77
2023/01/17 05:16:31;;;;;;;;;16.00;13.00;;;;;4.61;68.06;98484.94;1982704;28;2808617;-76
2023/01/17 05:17:42;;;;;;;;;12.00;12.00;;;;;4.61;68.28;98484.06;1976932;28;3521088;-76
2023/01/17 05:18:53;;;;;;;;;15.00;14.50;;;;;4.60;68.51;98485.81;1992387;28;2819390;-76
2023/01/17 05:20:04;;;;;;;;;17.50;12.50;;;;;4.59;68.31;98478.09;1972420;28;2811685;-76
2023/01/17 05:21:15;;;;;;;;;12.33;11.67;;;;;4.58;68.42;98479.84;1980297;28;3538779;-77
2023/01/17 05:22:26;;;;;;;;;16.00;13.67;;;;;4.58;68.51;98481.59;1971939;28;3554420;-76
2023/01/17 05:23:39;;;;;;;;;14.00;12.50;;;;;4.57;68.00;98478.16;2007431;28;2802357;-76
2023/01/17 05:24:49;;;;;;;;;15.00;11.67;;;;;4.56;68.24;98473.88;1989225;28;3533574;-76
2023/01/17 05:26:00;;;;;;;;;13.33;12.00;;;;;4.55;68.27;98477.38;1999924;28;3525275;-76
2023/01/17 05:27:13;;;;;;;;;18.50;12.50;;;;;4.53;68.31;98471.41;1992646;28;2823203;-76
2023/01/17 05:28:24;;;;;;;;;13.00;12.00;;;;;4.53;68.13;98474.00;1952437;28;2798179;-76
2023/01/17 05:29:34;;;;;;;;;14.00;10.00;;;;;4.52;68.16;98468.88;1993684;28;2790884;-76
2023/01/17 05:30:46;;;;;;;;;10.75;9.75;;;;;4.50;67.90;98469.78;2016253;28;1835778;-76
2023/01/17 05:31:57;;;;;;;;;16.50;12.00;;;;;4.49;67.99;98469.84;1982589;28;2816897;-76
2023/01/17 05:33:09;;;;;;;;;16.50;15.50;;;;;4.49;68.67;98478.47;1973328;28;2815904;-76
2023/01/17 05:34:20;;;;;;;;;15.75;12.00;;;;;4.47;68.03;98469.91;1967770;28;1840954;-77
2023/01/17 05:35:32;;;;;;;;;13.50;13.00;;;;;4.48;68.01;98473.34;1996123;28;1854933;-76
2023/01/17 05:36:42;;;;;;;;;16.00;13.00;;;;;4.46;68.42;98470.84;1990788;28;2819032;-76
2023/01/17 05:37:54;;;;;;;;;16.50;15.50;;;;;4.46;68.22;98465.63;1975615;28;2796160;-76
2023/01/17 05:39:04;;;;;;;;;19.00;15.50;;;;;4.46;68.63;98460.44;1981178;28;2828876;-76
2023/01/17 05:40:25;;;;;;;;;17.00;15.50;;;;;4.46;68.44;98451.78;1972894;28;2803357;-76
2023/01/17 05:41:35;;;;;;;;;15.00;15.00;;;;;4.46;68.81;98457.81;1957295;28;2800323;-77
2023/01/17 05:42:52;;;;;;;;;16.00;12.00;;;;;4.48;68.50;98456.00;1982407;28;2804391;-77
2023/01/17 05:44:03;;;;;;;;;21.67;17.00;;;;;4.49;68.78;98451.66;1991254;28;2846170;-77
2023/01/17 05:45:18;;;;;;;;;18.50;15.50;;;;;4.50;68.92;98450.72;2012929;28;1836748;-76
2023/01/17 05:46:30;;;;;;;;;19.33;16.00;;;;;4.50;69.08;98451.56;1962341;28;3564845;-76
2023/01/17 05:47:47;;;;;;;;;19.60;15.80;;;;;4.55;69.11;98453.09;2011109;28;1832578;-76
2023/01/17 05:48:58;;;;;;;;;29.00;19.00;;;;;4.56;69.48;98444.41;1984123;28;2839969;-76
2023/01/17 05:50:16;;;;;;;;;8.33;6.33;;;;;4.58;69.12;98447.78;1984991;28;2748799;-76
2023/01/17 05:51:28;;;;;;;;;17.00;16.00;;;;;4.58;69.31;98451.22;1959497;28;2820090;-76
2023/01/17 05:52:39;;;;;;;;;21.00;17.00;;;;;4.60;69.42;98443.34;1981714;28;2820086;-76
2023/01/17 05:53:49;;;;;;;;;16.67;13.67;;;;;4.61;69.22;98445.91;1957928;28;3520007;-76
2023/01/17 05:55:00;;;;;;;;;20.00;17.00;;;;;4.64;69.15;98446.66;1978256;28;2828419;-76
2023/01/17 05:56:11;;;;;;;;;16.50;12.50;;;;;4.65;69.11;98441.38;1975687;28;2800312;-76
2023/01/17 05:57:23;;;;;;;;;18.50;14.75;;;;;4.68;69.30;98437.78;2009715;28;1837798;-76
2023/01/17 05:58:33;;;;;;;;;17.00;15.00;;;;;4.70;69.04;98444.63;1961356;28;2806532;-76
2023/01/17 05:59:44;;;;;;;;;17.50;13.00;;;;;4.71;69.42;98437.66;1966627;28;2811693;-76
2023/01/17 06:00:55;;;;;;;;;10.33;10.33;;;;;4.73;69.17;98438.44;1993840;28;3501286;-76
2023/01/17 06:02:06;;;;;;;;;20.50;15.00;;;;;4.77;69.09;98441.72;1992431;28;2834630;-76
2023/01/17 06:03:17;;;;;;;;;14.00;12.50;;;;;4.78;69.20;98446.88;1985099;28;2812731;-76
2023/01/17 06:04:29;;;;;;;;;15.33;14.67;;;;;4.81;69.56;98443.28;1982396;28;2823187;-76
2023/01/17 06:05:40;;;;;;;;;17.00;14.50;;;;;4.82;69.41;98442.34;1978917;28;2802382;-76
2023/01/17 06:06:53;;;;;;;;;13.17;13.17;;;;;4.83;69.12;98436.25;2006056;28;1823218;-76
2023/01/17 06:08:05;;;;;;;;;13.50;13.50;;;;;4.82;69.29;98440.59;1962074;28;2792971;-76
2023/01/17 06:09:15;;;;;;;;;15.33;13.00;;;;;4.84;69.28;98433.56;1962213;28;3546066;-76
2023/01/17 06:10:28;;;;;;;;;17.50;12.50;;;;;4.84;69.53;98428.34;1969516;28;2790893;-76
2023/01/17 06:11:39;;;;;;;;;19.25;16.00;;;;;4.85;69.06;98424.00;1989580;28;1854412;-76
2023/01/17 06:13:04;;;;;;;;;18.50;14.50;;;;;4.88;69.39;98430.81;1982020;28;2810715;-76
2023/01/17 06:14:14;;;;;;;;;15.00;15.00;;;;;4.89;69.27;98430.75;1960061;28;2813821;-76
2023/01/17 06:15:25;;;;;;;;;17.00;15.25;;;;;4.91;69.56;98433.28;2011460;28;1827378;-76
2023/01/17 06:16:36;;;;;;;;;14.00;12.50;;;;;4.92;69.34;98430.59;1961639;28;2817492;-76
2023/01/17 06:17:47;;;;;;;;;11.67;10.00;;;;;4.94;69.68;98436.56;1989573;28;1842545;-77
2023/01/17 06:18:57;;;;;;;;;17.00;14.50;;;;;4.95;69.35;98434.81;1967947;28;2814115;-77
2023/01/17 06:20:10;;;;;;;;;19.50;13.00;;;;;4.98;69.34;98428.63;1975801;28;2837777;-77
2023/01/17 06:21:21;;;;;;;;;16.25;11.25;;;;;4.99;69.48;98431.16;1976818;28;1845072;-76
2023/01/17 06:22:32;;;;;;;;;18.00;16.00;;;;;5.01;69.68;98428.50;1983831;28;2821112;-76
2023/01/17 06:23:43;;;;;;;;;13.00;13.00;;;;;5.02;69.28;98427.56;1994897;28;2798203;-76
2023/01/17 06:24:54;;;;;;;;;17.40;14.80;;;;;5.03;69.34;98421.44;2008581;28;1825351;-77
2023/01/17 06:26:07;;;;;;;;;17.00;14.00;;;;;5.04;69.09;98421.38;1977243;28;2801321;-77
2023/01/17 06:27:17;;;;;;;;;17.00;13.50;;;;;5.08;69.59;98424.69;1983057;28;2812766;-76
2023/01/17 06:28:28;;;;;;;;;18.00;15.50;;;;;5.10;69.53;98425.44;1996973;28;2826323;-76
2023/01/17 06:29:39;;;;;;;;;13.50;12.50;;;;;5.10;69.19;98425.44;1963558;28;2810653;-76
2023/01/17 06:30:50;;;;;;;;;16.00;12.00;;;;;5.12;69.65;98430.56;1995331;28;2808636;-77
2023/01/17 06:32:02;;;;;;;;;24.00;18.50;;;;;5.14;69.51;98428.72;1982094;28;2837774;-76
2023/01/17 06:33:14;;;;;;;;;15.25;13.50;;;;;5.15;69.46;98426.06;1985678;28;1855494;-77
2023/01/17 06:34:28;;;;;;;;;13.50;13.17;;;;;5.15;69.50;98428.69;2012063;28;1835727;-76
2023/01/17 06:35:43;;;;;;;;;19.00;16.00;;;;;5.17;69.32;98423.38;1963416;28;2813789;-76
2023/01/17 06:36:56;;;;;;;;;19.50;17.67;;;;;5.17;69.52;98432.06;2012951;28;1835722;-76
2023/01/17 06:38:09;;;;;;;;;15.17;15.17;;;;;5.19;69.46;98426.75;1991317;28;1837813;-76
2023/01/17 06:39:20;;;;;;;;;11.00;11.00;;;;;5.21;69.47;98426.69;1962870;28;3526316;-76
2023/01/17 06:40:31;;;;;;;;;18.50;17.00;;;;;5.22;69.82;98430.97;1988531;28;2815908;-76
2023/01/17 06:41:42;;;;;;;;;14.50;14.00;;;;;5.24;69.46;98434.34;1954956;28;2785684;-76
2023/01/17 06:42:53;;;;;;;;;14.00;13.00;;;;;5.24;69.28;98429.13;1971303;28;2801297;-76
2023/01/17 06:44:08;;;;;;;;;15.20;13.00;;;;;5.24;69.59;98430.00;2008374;28;1826349;-76
2023/01/17 06:45:19;;;;;;;;;14.25;12.25;;;;;5.25;69.34;98430.84;1996206;28;1856578;-76
2023/01/17 06:46:30;;;;;;;;;18.50;13.00;;;;;5.26;69.33;98433.34;1991790;28;2815375;-76
2023/01/17 06:47:41;;;;;;;;;14.00;14.00;;;;;5.28;69.51;98430.69;1979317;28;2808569;-76
2023/01/17 06:48:55;;;;;;;;;19.71;17.14;;;;;5.28;69.15;98431.53;1991256;28;1831593;-76
2023/01/17 06:50:11;;;;;;;;;17.20;14.80;;;;;5.28;69.18;98428.91;1993965;28;2814803;-77
2023/01/17 06:51:21;;;;;;;;;17.00;17.00;;;;;5.30;69.47;98428.84;1954416;28;2822122;-76
2023/01/17 06:52:32;;;;;;;;;13.67;12.00;;;;;5.31;69.50;98424.50;1977248;28;3539843;-76
2023/01/17 06:53:43;;;;;;;;;18.25;15.75;;;;;5.31;69.33;98433.13;2011081;28;1827455;-76
2023/01/17 06:54:57;;;;;;;;;16.33;12.50;;;;;5.31;69.48;98430.53;1987794;28;1827389;-76
2023/01/17 06:56:08;;;;;;;;;17.00;14.00;;;;;5.33;69.40;98427.88;1954235;28;2811726;-76